sensor_id;sensor_type;location;lat;lon;timestamp;P1;durP1;ratioP1;P2;durP2;ratioP2
55913;SDS011;58179;48.776;9.124;2023-08-17T00:00:48;63.97;;;25.27;;
55913;SDS011;58179;48.776;9.124;2023-08-17T00:03:14;57.92;;;23.77;;
55913;SDS011;58179;48.776;9.124;2023-08-17T00:05:40;58.30;;;23.10;;
55913;SDS011;58179;48.776;9.124;2023-08-17T00:08:06;52.58;;;21.95;;
55913;SDS011;58179;48.776;9.124;2023-08-17T00:10:32;49.45;;;20.17;;
55913;SDS011;58179;48.776;9.124;2023-08-17T00:12:59;44.97;;;19.30;;
55913;SDS011;58179;48.776;9.124;2023-08-17T00:15:28;54.03;;;21.55;;
55913;SDS011;58179;48.776;9.124;2023-08-17T00:17:54;55.08;;;21.67;;
55913;SDS011;58179;48.776;9.124;2023-08-17T00:20:20;51.60;;;20.63;;
55913;SDS011;58179;48.776;9.124;2023-08-17T00:22:47;46.75;;;19.33;;
55913;SDS011;58179;48.776;9.124;2023-08-17T00:25:13;56.20;;;21.95;;
55913;SDS011;58179;48.776;9.124;2023-08-17T00:27:39;50.17;;;20.85;;
55913;SDS011;58179;48.776;9.124;2023-08-17T00:30:06;50.63;;;21.10;;
55913;SDS011;58179;48.776;9.124;2023-08-17T00:32:34;43.20;;;18.63;;
55913;SDS011;58179;48.776;9.124;2023-08-17T00:35:00;41.80;;;17.83;;
55913;SDS011;58179;48.776;9.124;2023-08-17T00:37:27;40.00;;;16.98;;
55913;SDS011;58179;48.776;9.124;2023-08-17T00:39:53;43.13;;;18.88;;
55913;SDS011;58179;48.776;9.124;2023-08-17T00:42:19;43.30;;;17.08;;
55913;SDS011;58179;48.776;9.124;2023-08-17T00:44:45;45.00;;;17.23;;
55913;SDS011;58179;48.776;9.124;2023-08-17T00:47:11;36.38;;;16.40;;
55913;SDS011;58179;48.776;9.124;2023-08-17T00:49:40;38.22;;;16.80;;
55913;SDS011;58179;48.776;9.124;2023-08-17T00:52:06;38.38;;;16.23;;
55913;SDS011;58179;48.776;9.124;2023-08-17T00:54:33;39.33;;;16.23;;
55913;SDS011;58179;48.776;9.124;2023-08-17T00:56:59;42.35;;;18.35;;
55913;SDS011;58179;48.776;9.124;2023-08-17T00:59:26;41.30;;;17.27;;
55913;SDS011;58179;48.776;9.124;2023-08-17T01:01:53;42.22;;;17.10;;
55913;SDS011;58179;48.776;9.124;2023-08-17T01:04:19;43.08;;;17.30;;
55913;SDS011;58179;48.776;9.124;2023-08-17T01:06:47;37.25;;;15.95;;
55913;SDS011;58179;48.776;9.124;2023-08-17T01:09:14;34.07;;;15.43;;
55913;SDS011;58179;48.776;9.124;2023-08-17T01:11:41;37.45;;;15.57;;
55913;SDS011;58179;48.776;9.124;2023-08-17T01:14:16;30.90;;;14.23;;
55913;SDS011;58179;48.776;9.124;2023-08-17T01:16:47;29.35;;;13.68;;
55913;SDS011;58179;48.776;9.124;2023-08-17T01:19:18;33.35;;;13.68;;
55913;SDS011;58179;48.776;9.124;2023-08-17T01:21:51;27.15;;;12.95;;
55913;SDS011;58179;48.776;9.124;2023-08-17T01:24:23;32.92;;;14.98;;
55913;SDS011;58179;48.776;9.124;2023-08-17T01:26:49;33.83;;;15.15;;
55913;SDS011;58179;48.776;9.124;2023-08-17T01:29:15;32.90;;;14.55;;
55913;SDS011;58179;48.776;9.124;2023-08-17T01:31:43;32.40;;;14.52;;
55913;SDS011;58179;48.776;9.124;2023-08-17T01:34:14;27.27;;;13.05;;
55913;SDS011;58179;48.776;9.124;2023-08-17T01:36:50;28.40;;;12.85;;
55913;SDS011;58179;48.776;9.124;2023-08-17T01:39:23;31.25;;;13.00;;
55913;SDS011;58179;48.776;9.124;2023-08-17T01:41:52;29.88;;;14.65;;
55913;SDS011;58179;48.776;9.124;2023-08-17T01:44:21;30.23;;;13.45;;
55913;SDS011;58179;48.776;9.124;2023-08-17T01:46:48;29.80;;;13.38;;
55913;SDS011;58179;48.776;9.124;2023-08-17T01:49:14;29.27;;;13.55;;
55913;SDS011;58179;48.776;9.124;2023-08-17T01:51:40;31.48;;;13.63;;
55913;SDS011;58179;48.776;9.124;2023-08-17T01:54:06;30.77;;;14.23;;
55913;SDS011;58179;48.776;9.124;2023-08-17T01:56:34;33.55;;;14.38;;
55913;SDS011;58179;48.776;9.124;2023-08-17T01:59:01;30.98;;;14.68;;
55913;SDS011;58179;48.776;9.124;2023-08-17T02:01:29;32.83;;;14.60;;
55913;SDS011;58179;48.776;9.124;2023-08-17T02:03:55;30.60;;;14.32;;
55913;SDS011;58179;48.776;9.124;2023-08-17T02:06:21;29.55;;;13.30;;
55913;SDS011;58179;48.776;9.124;2023-08-17T02:08:47;33.95;;;14.73;;
55913;SDS011;58179;48.776;9.124;2023-08-17T02:11:13;35.10;;;15.65;;
55913;SDS011;58179;48.776;9.124;2023-08-17T02:13:41;30.30;;;14.20;;
55913;SDS011;58179;48.776;9.124;2023-08-17T02:16:07;31.20;;;13.25;;
55913;SDS011;58179;48.776;9.124;2023-08-17T02:18:33;24.98;;;12.48;;
55913;SDS011;58179;48.776;9.124;2023-08-17T02:21:00;26.52;;;11.70;;
55913;SDS011;58179;48.776;9.124;2023-08-17T02:23:26;28.35;;;12.85;;
55913;SDS011;58179;48.776;9.124;2023-08-17T02:25:52;26.95;;;12.60;;
55913;SDS011;58179;48.776;9.124;2023-08-17T02:28:18;28.98;;;12.27;;
55913;SDS011;58179;48.776;9.124;2023-08-17T02:30:46;27.88;;;12.30;;
55913;SDS011;58179;48.776;9.124;2023-08-17T02:33:14;28.95;;;12.13;;
55913;SDS011;58179;48.776;9.124;2023-08-17T02:35:40;26.60;;;11.95;;
55913;SDS011;58179;48.776;9.124;2023-08-17T02:38:06;25.73;;;11.13;;
55913;SDS011;58179;48.776;9.124;2023-08-17T02:40:32;27.67;;;11.93;;
55913;SDS011;58179;48.776;9.124;2023-08-17T02:42:58;28.17;;;11.37;;
55913;SDS011;58179;48.776;9.124;2023-08-17T02:45:25;35.38;;;13.45;;
55913;SDS011;58179;48.776;9.124;2023-08-17T02:47:52;43.03;;;14.60;;
55913;SDS011;58179;48.776;9.124;2023-08-17T02:50:18;49.67;;;17.33;;
55913;SDS011;58179;48.776;9.124;2023-08-17T02:52:44;65.05;;;20.40;;
55913;SDS011;58179;48.776;9.124;2023-08-17T02:55:10;67.15;;;19.52;;
55913;SDS011;58179;48.776;9.124;2023-08-17T02:57:37;72.38;;;20.80;;
55913;SDS011;58179;48.776;9.124;2023-08-17T03:00:03;68.78;;;19.60;;
55913;SDS011;58179;48.776;9.124;2023-08-17T03:02:30;62.80;;;18.40;;
55913;SDS011;58179;48.776;9.124;2023-08-17T03:04:58;69.85;;;19.92;;
55913;SDS011;58179;48.776;9.124;2023-08-17T03:07:24;67.30;;;18.27;;
55913;SDS011;58179;48.776;9.124;2023-08-17T03:09:50;60.67;;;17.63;;
55913;SDS011;58179;48.776;9.124;2023-08-17T03:12:17;58.05;;;17.13;;
55913;SDS011;58179;48.776;9.124;2023-08-17T03:14:43;66.00;;;17.67;;
55913;SDS011;58179;48.776;9.124;2023-08-17T03:17:09;72.65;;;20.52;;
55913;SDS011;58179;48.776;9.124;2023-08-17T03:19:35;69.70;;;19.60;;
55913;SDS011;58179;48.776;9.124;2023-08-17T03:22:03;72.15;;;19.98;;
55913;SDS011;58179;48.776;9.124;2023-08-17T03:24:29;61.40;;;18.35;;
55913;SDS011;58179;48.776;9.124;2023-08-17T03:26:55;64.53;;;18.33;;
55913;SDS011;58179;48.776;9.124;2023-08-17T03:29:21;70.47;;;19.08;;
55913;SDS011;58179;48.776;9.124;2023-08-17T03:31:47;72.07;;;19.10;;
55913;SDS011;58179;48.776;9.124;2023-08-17T03:34:14;60.83;;;17.60;;
55913;SDS011;58179;48.776;9.124;2023-08-17T03:36:41;90.03;;;23.20;;
55913;SDS011;58179;48.776;9.124;2023-08-17T03:39:08;87.35;;;21.48;;
55913;SDS011;58179;48.776;9.124;2023-08-17T03:41:35;82.30;;;20.98;;
55913;SDS011;58179;48.776;9.124;2023-08-17T03:44:02;73.10;;;20.00;;
55913;SDS011;58179;48.776;9.124;2023-08-17T03:46:30;84.45;;;21.00;;
55913;SDS011;58179;48.776;9.124;2023-08-17T03:48:57;77.28;;;21.20;;
55913;SDS011;58179;48.776;9.124;2023-08-17T03:51:23;73.60;;;20.27;;
55913;SDS011;58179;48.776;9.124;2023-08-17T03:53:49;69.30;;;17.77;;
55913;SDS011;58179;48.776;9.124;2023-08-17T03:56:17;79.32;;;20.63;;
55913;SDS011;58179;48.776;9.124;2023-08-17T03:58:43;97.65;;;23.80;;
55913;SDS011;58179;48.776;9.124;2023-08-17T04:01:09;98.25;;;23.65;;
55913;SDS011;58179;48.776;9.124;2023-08-17T04:03:36;76.63;;;20.42;;
55913;SDS011;58179;48.776;9.124;2023-08-17T04:06:04;68.40;;;18.40;;
55913;SDS011;58179;48.776;9.124;2023-08-17T04:08:31;71.38;;;17.75;;
55913;SDS011;58179;48.776;9.124;2023-08-17T04:10:57;63.78;;;17.58;;
55913;SDS011;58179;48.776;9.124;2023-08-17T04:13:25;70.22;;;18.38;;
55913;SDS011;58179;48.776;9.124;2023-08-17T04:15:52;67.45;;;17.88;;
55913;SDS011;58179;48.776;9.124;2023-08-17T04:18:18;92.72;;;21.25;;
55913;SDS011;58179;48.776;9.124;2023-08-17T04:20:44;86.47;;;22.67;;
55913;SDS011;58179;48.776;9.124;2023-08-17T04:23:10;105.27;;;27.30;;
55913;SDS011;58179;48.776;9.124;2023-08-17T04:25:37;96.38;;;25.20;;
55913;SDS011;58179;48.776;9.124;2023-08-17T04:28:03;85.93;;;23.63;;
55913;SDS011;58179;48.776;9.124;2023-08-17T04:30:31;111.85;;;25.63;;
55913;SDS011;58179;48.776;9.124;2023-08-17T04:32:57;98.57;;;23.63;;
55913;SDS011;58179;48.776;9.124;2023-08-17T04:35:23;92.47;;;23.13;;
55913;SDS011;58179;48.776;9.124;2023-08-17T04:37:50;76.80;;;19.33;;
55913;SDS011;58179;48.776;9.124;2023-08-17T04:40:17;132.32;;;28.17;;
55913;SDS011;58179;48.776;9.124;2023-08-17T04:42:43;107.60;;;25.05;;
55913;SDS011;58179;48.776;9.124;2023-08-17T04:45:09;99.63;;;23.40;;
55913;SDS011;58179;48.776;9.124;2023-08-17T04:47:37;70.38;;;19.10;;
55913;SDS011;58179;48.776;9.124;2023-08-17T04:50:04;74.80;;;18.80;;
55913;SDS011;58179;48.776;9.124;2023-08-17T04:52:31;96.25;;;22.25;;
55913;SDS011;58179;48.776;9.124;2023-08-17T04:54:57;100.53;;;23.27;;
55913;SDS011;58179;48.776;9.124;2023-08-17T04:57:24;89.80;;;21.80;;
55913;SDS011;58179;48.776;9.124;2023-08-17T04:59:51;83.50;;;20.80;;
55913;SDS011;58179;48.776;9.124;2023-08-17T05:02:17;67.18;;;17.85;;
55913;SDS011;58179;48.776;9.124;2023-08-17T05:04:45;101.38;;;21.80;;
55913;SDS011;58179;48.776;9.124;2023-08-17T05:07:12;80.57;;;19.30;;
55913;SDS011;58179;48.776;9.124;2023-08-17T05:09:38;85.35;;;19.92;;
55913;SDS011;58179;48.776;9.124;2023-08-17T05:12:04;87.20;;;20.33;;
55913;SDS011;58179;48.776;9.124;2023-08-17T05:14:31;76.85;;;17.80;;
55913;SDS011;58179;48.776;9.124;2023-08-17T05:16:57;72.60;;;17.83;;
55913;SDS011;58179;48.776;9.124;2023-08-17T05:19:23;70.38;;;17.42;;
55913;SDS011;58179;48.776;9.124;2023-08-17T05:21:51;80.07;;;18.77;;
55913;SDS011;58179;48.776;9.124;2023-08-17T05:24:18;70.45;;;17.75;;
55913;SDS011;58179;48.776;9.124;2023-08-17T05:26:45;79.15;;;18.50;;
55913;SDS011;58179;48.776;9.124;2023-08-17T05:29:11;84.97;;;19.60;;
55913;SDS011;58179;48.776;9.124;2023-08-17T05:31:37;73.38;;;17.58;;
55913;SDS011;58179;48.776;9.124;2023-08-17T05:34:04;67.90;;;16.48;;
55913;SDS011;58179;48.776;9.124;2023-08-17T05:36:30;59.80;;;16.00;;
55913;SDS011;58179;48.776;9.124;2023-08-17T05:38:57;59.50;;;16.42;;
55913;SDS011;58179;48.776;9.124;2023-08-17T05:41:24;66.23;;;16.27;;
55913;SDS011;58179;48.776;9.124;2023-08-17T05:43:50;64.20;;;16.25;;
55913;SDS011;58179;48.776;9.124;2023-08-17T05:46:16;66.90;;;17.30;;
55913;SDS011;58179;48.776;9.124;2023-08-17T05:48:42;65.63;;;18.20;;
55913;SDS011;58179;48.776;9.124;2023-08-17T05:51:09;75.63;;;19.42;;
55913;SDS011;58179;48.776;9.124;2023-08-17T05:53:35;64.75;;;17.60;;
55913;SDS011;58179;48.776;9.124;2023-08-17T05:56:02;107.82;;;25.52;;
55913;SDS011;58179;48.776;9.124;2023-08-17T05:58:29;116.72;;;27.20;;
55913;SDS011;58179;48.776;9.124;2023-08-17T06:00:59;100.07;;;23.27;;
55913;SDS011;58179;48.776;9.124;2023-08-17T06:03:30;127.87;;;28.07;;
55913;SDS011;58179;48.776;9.124;2023-08-17T06:05:56;110.15;;;25.83;;
55913;SDS011;58179;48.776;9.124;2023-08-17T06:08:22;97.43;;;24.05;;
55913;SDS011;58179;48.776;9.124;2023-08-17T06:10:48;89.90;;;21.73;;
55913;SDS011;58179;48.776;9.124;2023-08-17T06:13:16;77.13;;;19.67;;
55913;SDS011;58179;48.776;9.124;2023-08-17T06:15:42;76.68;;;20.35;;
55913;SDS011;58179;48.776;9.124;2023-08-17T06:18:08;79.30;;;21.20;;
55913;SDS011;58179;48.776;9.124;2023-08-17T06:20:34;113.43;;;27.75;;
55913;SDS011;58179;48.776;9.124;2023-08-17T06:23:01;92.75;;;24.20;;
55913;SDS011;58179;48.776;9.124;2023-08-17T06:25:27;100.45;;;25.23;;
55913;SDS011;58179;48.776;9.124;2023-08-17T06:27:53;76.65;;;21.95;;
55913;SDS011;58179;48.776;9.124;2023-08-17T06:30:22;89.80;;;26.23;;
55913;SDS011;58179;48.776;9.124;2023-08-17T06:32:49;110.13;;;28.55;;
55913;SDS011;58179;48.776;9.124;2023-08-17T06:35:16;153.43;;;35.40;;
55913;SDS011;58179;48.776;9.124;2023-08-17T06:37:42;109.78;;;29.98;;
55913;SDS011;58179;48.776;9.124;2023-08-17T06:40:09;87.03;;;25.05;;
55913;SDS011;58179;48.776;9.124;2023-08-17T06:42:36;86.95;;;26.23;;
55913;SDS011;58179;48.776;9.124;2023-08-17T06:45:03;102.03;;;30.13;;
55913;SDS011;58179;48.776;9.124;2023-08-17T06:47:31;90.93;;;25.90;;
55913;SDS011;58179;48.776;9.124;2023-08-17T06:49:58;62.25;;;21.25;;
55913;SDS011;58179;48.776;9.124;2023-08-17T06:52:24;60.38;;;19.92;;
55913;SDS011;58179;48.776;9.124;2023-08-17T06:54:50;50.85;;;17.20;;
55913;SDS011;58179;48.776;9.124;2023-08-17T06:57:16;50.53;;;16.95;;
55913;SDS011;58179;48.776;9.124;2023-08-17T06:59:43;51.20;;;16.65;;
55913;SDS011;58179;48.776;9.124;2023-08-17T07:02:11;47.90;;;15.93;;
55913;SDS011;58179;48.776;9.124;2023-08-17T07:04:38;54.60;;;16.88;;
55913;SDS011;58179;48.776;9.124;2023-08-17T07:07:04;60.75;;;18.30;;
55913;SDS011;58179;48.776;9.124;2023-08-17T07:09:31;57.65;;;18.33;;
55913;SDS011;58179;48.776;9.124;2023-08-17T07:11:57;63.63;;;18.92;;
55913;SDS011;58179;48.776;9.124;2023-08-17T07:14:23;61.25;;;18.83;;
55913;SDS011;58179;48.776;9.124;2023-08-17T07:16:49;52.88;;;17.55;;
55913;SDS011;58179;48.776;9.124;2023-08-17T07:19:16;66.15;;;21.23;;
55913;SDS011;58179;48.776;9.124;2023-08-17T07:21:43;86.90;;;23.10;;
55913;SDS011;58179;48.776;9.124;2023-08-17T07:24:13;59.05;;;18.27;;
55913;SDS011;58179;48.776;9.124;2023-08-17T07:26:40;64.10;;;19.38;;
55913;SDS011;58179;48.776;9.124;2023-08-17T07:29:07;69.37;;;20.83;;
55913;SDS011;58179;48.776;9.124;2023-08-17T07:31:33;61.97;;;19.35;;
55913;SDS011;58179;48.776;9.124;2023-08-17T07:34:02;53.85;;;18.42;;
55913;SDS011;58179;48.776;9.124;2023-08-17T07:36:28;51.65;;;17.15;;
55913;SDS011;58179;48.776;9.124;2023-08-17T07:38:56;41.75;;;15.50;;
55913;SDS011;58179;48.776;9.124;2023-08-17T07:41:22;83.15;;;25.17;;
55913;SDS011;58179;48.776;9.124;2023-08-17T07:43:48;55.57;;;20.40;;
55913;SDS011;58179;48.776;9.124;2023-08-17T07:46:15;52.10;;;18.75;;
55913;SDS011;58179;48.776;9.124;2023-08-17T07:48:41;38.00;;;16.05;;
55913;SDS011;58179;48.776;9.124;2023-08-17T07:51:07;41.92;;;16.50;;
55913;SDS011;58179;48.776;9.124;2023-08-17T07:53:34;28.33;;;13.02;;
55913;SDS011;58179;48.776;9.124;2023-08-17T07:56:01;22.05;;;11.20;;
55913;SDS011;58179;48.776;9.124;2023-08-17T07:58:27;20.85;;;10.20;;
55913;SDS011;58179;48.776;9.124;2023-08-17T08:00:54;21.02;;;10.18;;
55913;SDS011;58179;48.776;9.124;2023-08-17T08:03:20;18.40;;;9.70;;
55913;SDS011;58179;48.776;9.124;2023-08-17T08:05:46;17.08;;;8.75;;
55913;SDS011;58179;48.776;9.124;2023-08-17T08:08:12;15.00;;;8.40;;
55913;SDS011;58179;48.776;9.124;2023-08-17T08:10:39;17.50;;;8.98;;
55913;SDS011;58179;48.776;9.124;2023-08-17T08:13:07;18.02;;;9.25;;
55913;SDS011;58179;48.776;9.124;2023-08-17T08:15:33;15.13;;;9.02;;
55913;SDS011;58179;48.776;9.124;2023-08-17T08:18:00;13.93;;;8.75;;
55913;SDS011;58179;48.776;9.124;2023-08-17T08:20:26;12.77;;;8.05;;
55913;SDS011;58179;48.776;9.124;2023-08-17T08:22:52;14.25;;;8.52;;
55913;SDS011;58179;48.776;9.124;2023-08-17T08:25:18;16.60;;;10.40;;
55913;SDS011;58179;48.776;9.124;2023-08-17T08:27:44;16.13;;;10.10;;
55913;SDS011;58179;48.776;9.124;2023-08-17T08:30:12;13.02;;;8.10;;
55913;SDS011;58179;48.776;9.124;2023-08-17T08:32:38;11.23;;;7.80;;
55913;SDS011;58179;48.776;9.124;2023-08-17T08:35:05;8.07;;;6.32;;
55913;SDS011;58179;48.776;9.124;2023-08-17T08:37:32;7.25;;;6.10;;
55913;SDS011;58179;48.776;9.124;2023-08-17T08:39:58;6.90;;;5.67;;
55913;SDS011;58179;48.776;9.124;2023-08-17T08:42:24;8.73;;;6.47;;
55913;SDS011;58179;48.776;9.124;2023-08-17T08:44:51;7.20;;;6.10;;
55913;SDS011;58179;48.776;9.124;2023-08-17T08:47:18;7.57;;;5.63;;
55913;SDS011;58179;48.776;9.124;2023-08-17T08:49:49;6.10;;;5.47;;
55913;SDS011;58179;48.776;9.124;2023-08-17T08:52:23;8.13;;;6.03;;
55913;SDS011;58179;48.776;9.124;2023-08-17T08:54:57;7.53;;;6.60;;
55913;SDS011;58179;48.776;9.124;2023-08-17T08:57:28;6.50;;;5.78;;
55913;SDS011;58179;48.776;9.124;2023-08-17T08:59:55;6.45;;;5.53;;
55913;SDS011;58179;48.776;9.124;2023-08-17T09:02:23;5.72;;;5.13;;
55913;SDS011;58179;48.776;9.124;2023-08-17T09:04:49;5.45;;;4.85;;
55913;SDS011;58179;48.776;9.124;2023-08-17T09:07:16;8.40;;;7.10;;
55913;SDS011;58179;48.776;9.124;2023-08-17T09:09:44;14.48;;;7.22;;
55913;SDS011;58179;48.776;9.124;2023-08-17T09:12:11;10.90;;;8.18;;
55913;SDS011;58179;48.776;9.124;2023-08-17T09:14:37;7.15;;;6.45;;
55913;SDS011;58179;48.776;9.124;2023-08-17T09:17:04;7.13;;;6.40;;
55913;SDS011;58179;48.776;9.124;2023-08-17T09:19:32;6.35;;;5.75;;
55913;SDS011;58179;48.776;9.124;2023-08-17T09:21:59;7.53;;;6.03;;
55913;SDS011;58179;48.776;9.124;2023-08-17T09:24:33;6.57;;;5.30;;
55913;SDS011;58179;48.776;9.124;2023-08-17T09:27:00;5.20;;;4.55;;
55913;SDS011;58179;48.776;9.124;2023-08-17T09:29:26;4.13;;;3.72;;
55913;SDS011;58179;48.776;9.124;2023-08-17T09:31:52;4.85;;;4.05;;
55913;SDS011;58179;48.776;9.124;2023-08-17T09:34:19;4.23;;;3.83;;
55913;SDS011;58179;48.776;9.124;2023-08-17T09:36:46;3.70;;;3.30;;
55913;SDS011;58179;48.776;9.124;2023-08-17T09:39:13;4.13;;;3.72;;
55913;SDS011;58179;48.776;9.124;2023-08-17T09:41:42;4.13;;;3.70;;
55913;SDS011;58179;48.776;9.124;2023-08-17T09:44:09;4.10;;;3.70;;
55913;SDS011;58179;48.776;9.124;2023-08-17T09:46:37;3.97;;;3.58;;
55913;SDS011;58179;48.776;9.124;2023-08-17T09:49:04;5.00;;;4.40;;
55913;SDS011;58179;48.776;9.124;2023-08-17T09:51:31;4.25;;;3.85;;
55913;SDS011;58179;48.776;9.124;2023-08-17T09:54:00;4.60;;;3.90;;
55913;SDS011;58179;48.776;9.124;2023-08-17T09:56:26;4.10;;;3.70;;
55913;SDS011;58179;48.776;9.124;2023-08-17T09:58:53;4.88;;;4.25;;
55913;SDS011;58179;48.776;9.124;2023-08-17T10:01:19;4.10;;;3.53;;
55913;SDS011;58179;48.776;9.124;2023-08-17T10:03:48;4.10;;;3.70;;
55913;SDS011;58179;48.776;9.124;2023-08-17T10:06:17;4.13;;;3.75;;
55913;SDS011;58179;48.776;9.124;2023-08-17T10:08:46;4.43;;;4.03;;
55913;SDS011;58179;48.776;9.124;2023-08-17T10:11:17;5.15;;;4.40;;
55913;SDS011;58179;48.776;9.124;2023-08-17T10:13:48;7.15;;;6.45;;
55913;SDS011;58179;48.776;9.124;2023-08-17T10:16:21;8.65;;;7.80;;
55913;SDS011;58179;48.776;9.124;2023-08-17T10:18:53;8.63;;;7.37;;
55913;SDS011;58179;48.776;9.124;2023-08-17T10:21:26;6.22;;;5.63;;
55913;SDS011;58179;48.776;9.124;2023-08-17T10:23:57;10.18;;;6.60;;
55913;SDS011;58179;48.776;9.124;2023-08-17T10:26:25;6.65;;;5.70;;
55913;SDS011;58179;48.776;9.124;2023-08-17T10:28:52;7.30;;;5.70;;
55913;SDS011;58179;48.776;9.124;2023-08-17T10:31:20;6.07;;;5.47;;
55913;SDS011;58179;48.776;9.124;2023-08-17T10:33:46;5.28;;;4.70;;
55913;SDS011;58179;48.776;9.124;2023-08-17T10:36:13;5.40;;;4.65;;
55913;SDS011;58179;48.776;9.124;2023-08-17T10:38:40;5.30;;;4.70;;
55913;SDS011;58179;48.776;9.124;2023-08-17T10:41:07;5.07;;;4.57;;
55913;SDS011;58179;48.776;9.124;2023-08-17T10:43:39;4.93;;;4.43;;
55913;SDS011;58179;48.776;9.124;2023-08-17T10:46:19;5.32;;;4.60;;
55913;SDS011;58179;48.776;9.124;2023-08-17T10:48:45;5.35;;;4.75;;
55913;SDS011;58179;48.776;9.124;2023-08-17T10:51:11;6.75;;;5.28;;
55913;SDS011;58179;48.776;9.124;2023-08-17T10:53:38;6.43;;;5.80;;
55913;SDS011;58179;48.776;9.124;2023-08-17T10:56:10;5.27;;;4.77;;
55913;SDS011;58179;48.776;9.124;2023-08-17T10:58:39;5.20;;;4.70;;
55913;SDS011;58179;48.776;9.124;2023-08-17T11:01:09;5.80;;;5.20;;
55913;SDS011;58179;48.776;9.124;2023-08-17T11:03:36;5.60;;;5.00;;
55913;SDS011;58179;48.776;9.124;2023-08-17T11:06:13;5.47;;;4.65;;
55913;SDS011;58179;48.776;9.124;2023-08-17T11:08:52;4.88;;;4.47;;
55913;SDS011;58179;48.776;9.124;2023-08-17T11:11:20;5.25;;;4.75;;
55913;SDS011;58179;48.776;9.124;2023-08-17T11:13:52;14.75;;;4.53;;
55913;SDS011;58179;48.776;9.124;2023-08-17T11:16:19;4.70;;;4.30;;
55913;SDS011;58179;48.776;9.124;2023-08-17T11:18:45;5.37;;;4.87;;
55913;SDS011;58179;48.776;9.124;2023-08-17T11:21:12;6.60;;;5.03;;
55913;SDS011;58179;48.776;9.124;2023-08-17T11:23:39;5.07;;;4.30;;
55913;SDS011;58179;48.776;9.124;2023-08-17T11:26:06;5.90;;;4.70;;
55913;SDS011;58179;48.776;9.124;2023-08-17T11:28:33;12.25;;;6.00;;
55913;SDS011;58179;48.776;9.124;2023-08-17T11:31:08;5.68;;;5.00;;
55913;SDS011;58179;48.776;9.124;2023-08-17T11:33:35;5.47;;;4.97;;
55913;SDS011;58179;48.776;9.124;2023-08-17T11:36:03;5.20;;;4.70;;
55913;SDS011;58179;48.776;9.124;2023-08-17T11:38:31;4.75;;;4.35;;
55913;SDS011;58179;48.776;9.124;2023-08-17T11:40:58;4.30;;;3.90;;
55913;SDS011;58179;48.776;9.124;2023-08-17T11:43:25;4.85;;;4.43;;
55913;SDS011;58179;48.776;9.124;2023-08-17T11:45:52;5.38;;;4.88;;
55913;SDS011;58179;48.776;9.124;2023-08-17T11:48:21;5.47;;;4.97;;
55913;SDS011;58179;48.776;9.124;2023-08-17T11:50:48;4.35;;;3.95;;
55913;SDS011;58179;48.776;9.124;2023-08-17T11:53:15;6.53;;;5.82;;
55913;SDS011;58179;48.776;9.124;2023-08-17T11:55:41;6.10;;;5.50;;
55913;SDS011;58179;48.776;9.124;2023-08-17T11:58:08;6.88;;;5.43;;
55913;SDS011;58179;48.776;9.124;2023-08-17T12:00:35;5.47;;;4.97;;
55913;SDS011;58179;48.776;9.124;2023-08-17T12:03:05;5.68;;;4.93;;
55913;SDS011;58179;48.776;9.124;2023-08-17T12:05:33;6.77;;;5.20;;
55913;SDS011;58179;48.776;9.124;2023-08-17T12:08:00;6.07;;;4.97;;
55913;SDS011;58179;48.776;9.124;2023-08-17T12:10:27;6.07;;;5.20;;
55913;SDS011;58179;48.776;9.124;2023-08-17T12:12:56;7.53;;;5.43;;
55913;SDS011;58179;48.776;9.124;2023-08-17T12:15:29;9.07;;;6.77;;
55913;SDS011;58179;48.776;9.124;2023-08-17T12:17:58;7.28;;;6.50;;
55913;SDS011;58179;48.776;9.124;2023-08-17T12:20:25;7.60;;;6.53;;
55913;SDS011;58179;48.776;9.124;2023-08-17T12:22:52;8.32;;;7.32;;
55913;SDS011;58179;48.776;9.124;2023-08-17T12:25:20;8.48;;;7.57;;
55913;SDS011;58179;48.776;9.124;2023-08-17T12:27:49;7.20;;;6.47;;
55913;SDS011;58179;48.776;9.124;2023-08-17T12:30:23;8.60;;;7.38;;
55913;SDS011;58179;48.776;9.124;2023-08-17T12:32:51;8.65;;;7.65;;
55913;SDS011;58179;48.776;9.124;2023-08-17T12:35:17;14.63;;;11.70;;
55913;SDS011;58179;48.776;9.124;2023-08-17T12:37:46;10.13;;;9.03;;
55913;SDS011;58179;48.776;9.124;2023-08-17T12:40:14;9.63;;;8.50;;
55913;SDS011;58179;48.776;9.124;2023-08-17T12:42:40;9.55;;;8.55;;
55913;SDS011;58179;48.776;9.124;2023-08-17T12:45:07;8.68;;;7.50;;
55913;SDS011;58179;48.776;9.124;2023-08-17T12:47:33;8.40;;;7.38;;
55913;SDS011;58179;48.776;9.124;2023-08-17T12:49:59;8.23;;;7.43;;
55913;SDS011;58179;48.776;9.124;2023-08-17T12:52:26;8.65;;;7.65;;
55913;SDS011;58179;48.776;9.124;2023-08-17T12:54:53;7.72;;;6.93;;
55913;SDS011;58179;48.776;9.124;2023-08-17T12:57:20;13.77;;;10.53;;
55913;SDS011;58179;48.776;9.124;2023-08-17T12:59:47;15.07;;;11.50;;
55913;SDS011;58179;48.776;9.124;2023-08-17T13:02:13;11.82;;;9.85;;
55913;SDS011;58179;48.776;9.124;2023-08-17T13:04:39;10.77;;;9.55;;
55913;SDS011;58179;48.776;9.124;2023-08-17T13:07:06;9.25;;;8.15;;
55913;SDS011;58179;48.776;9.124;2023-08-17T13:09:32;10.13;;;8.55;;
55913;SDS011;58179;48.776;9.124;2023-08-17T13:11:59;16.40;;;11.20;;
55913;SDS011;58179;48.776;9.124;2023-08-17T13:14:26;10.60;;;8.70;;
55913;SDS011;58179;48.776;9.124;2023-08-17T13:16:52;10.55;;;8.57;;
55913;SDS011;58179;48.776;9.124;2023-08-17T13:19:19;8.75;;;7.68;;
55913;SDS011;58179;48.776;9.124;2023-08-17T13:21:45;10.23;;;7.95;;
55913;SDS011;58179;48.776;9.124;2023-08-17T13:24:11;10.18;;;8.57;;
55913;SDS011;58179;48.776;9.124;2023-08-17T13:26:38;11.30;;;8.83;;
55913;SDS011;58179;48.776;9.124;2023-08-17T13:29:04;12.57;;;9.20;;
55913;SDS011;58179;48.776;9.124;2023-08-17T13:31:32;16.83;;;11.57;;
55913;SDS011;58179;48.776;9.124;2023-08-17T13:33:58;16.67;;;11.75;;
55913;SDS011;58179;48.776;9.124;2023-08-17T13:36:24;15.73;;;11.20;;
55913;SDS011;58179;48.776;9.124;2023-08-17T13:38:50;15.98;;;10.90;;
55913;SDS011;58179;48.776;9.124;2023-08-17T13:41:16;19.77;;;12.35;;
55913;SDS011;58179;48.776;9.124;2023-08-17T13:43:43;19.70;;;12.18;;
55913;SDS011;58179;48.776;9.124;2023-08-17T13:46:09;28.20;;;16.35;;
55913;SDS011;58179;48.776;9.124;2023-08-17T13:48:36;30.05;;;17.00;;
55913;SDS011;58179;48.776;9.124;2023-08-17T13:51:04;33.50;;;17.23;;
55913;SDS011;58179;48.776;9.124;2023-08-17T13:53:30;30.38;;;16.55;;
55913;SDS011;58179;48.776;9.124;2023-08-17T13:55:56;28.90;;;16.08;;
55913;SDS011;58179;48.776;9.124;2023-08-17T13:58:22;23.23;;;14.10;;
55913;SDS011;58179;48.776;9.124;2023-08-17T14:00:48;22.23;;;12.40;;
55913;SDS011;58179;48.776;9.124;2023-08-17T14:03:15;18.87;;;11.40;;
55913;SDS011;58179;48.776;9.124;2023-08-17T14:05:42;18.10;;;11.43;;
55913;SDS011;58179;48.776;9.124;2023-08-17T14:08:09;18.92;;;11.65;;
55913;SDS011;58179;48.776;9.124;2023-08-17T14:10:36;38.65;;;18.60;;
55913;SDS011;58179;48.776;9.124;2023-08-17T14:13:02;50.03;;;23.15;;
55913;SDS011;58179;48.776;9.124;2023-08-17T14:15:29;38.35;;;18.88;;
55913;SDS011;58179;48.776;9.124;2023-08-17T14:17:55;36.08;;;19.27;;
55913;SDS011;58179;48.776;9.124;2023-08-17T14:20:22;30.90;;;17.23;;
55913;SDS011;58179;48.776;9.124;2023-08-17T14:22:49;32.80;;;16.77;;
55913;SDS011;58179;48.776;9.124;2023-08-17T14:25:15;29.30;;;16.10;;
55913;SDS011;58179;48.776;9.124;2023-08-17T14:27:42;32.75;;;17.10;;